Time;durP1;ratioP1;P1;durP2;ratioP2;P2;SDS_P1;SDS_P2;PMS_P1;PMS_P2;Temp;Humidity;BMP_temperature;BMP_pressure;BME280_temperature;BME280_humidity;BME280_pressure;Samples;Min_cycle;Max_cycle;Signal;HPM_P1;HPM_P2
2022/11/25 00:01:04;;;;;;;18.70;6.78;;;;;;;3.89;78.21;100181.22;10441922;28;20048;-77
2022/11/25 00:06:14;;;;;;;19.23;6.55;;;;;;;3.79;78.22;100170.25;10451293;28;20405;-77
2022/11/25 00:11:18;;;;;;;21.33;7.43;;;;;;;3.59;78.44;100163.38;10456742;28;20068;-78
2022/11/25 00:16:22;;;;;;;23.30;8.32;;;;;;;3.45;79.23;100172.13;10455317;28;20120;-77
2022/11/25 00:21:28;;;;;;;21.30;7.72;;;;;;;3.43;79.13;100160.75;10435985;28;20045;-78
2022/11/25 00:26:32;;;;;;;19.33;7.25;;;;;;;3.44;79.14;100154.47;10458523;28;20041;-78
2022/11/25 00:31:40;;;;;;;21.10;7.45;;;;;;;3.40;79.26;100149.41;10444740;28;20056;-78
2022/11/25 00:36:44;;;;;;;22.52;7.78;;;;;;;3.24;79.92;100136.16;10439826;28;20610;-78
2022/11/25 00:47:11;;;;;;;21.57;7.37;;;;;;;3.17;80.19;100124.97;10440211;28;20136;-78
2022/11/25 00:52:17;;;;;;;18.73;8.52;;;;;;;3.14;80.11;100129.63;10439399;28;20520;-77
2022/11/25 00:57:23;;;;;;;22.63;7.93;;;;;;;3.21;79.96;100130.97;10457467;28;20119;-78
2022/11/25 01:02:26;;;;;;;21.52;7.55;;;;;;;3.23;79.70;100140.56;10439115;28;20501;-78
2022/11/25 01:07:31;;;;;;;17.52;7.25;;;;;;;3.10;79.77;100136.00;10449121;28;20049;-78
2022/11/25 01:12:33;;;;;;;28.58;8.00;;;;;;;3.11;79.86;100133.28;10456516;28;20879;-78
2022/11/25 01:17:36;;;;;;;23.10;7.50;;;;;;;3.11;80.44;100127.13;10457116;28;20053;-78
2022/11/25 01:22:40;;;;;;;17.05;7.70;;;;;;;3.16;80.18;100115.31;10455973;28;20086;-78
2022/11/25 01:27:43;;;;;;;20.35;7.25;;;;;;;3.17;80.23;100119.69;10438315;28;20076;-78
2022/11/25 01:32:46;;;;;;;19.95;8.05;;;;;;;3.19;80.12;100115.16;10438111;28;20049;-78
2022/11/25 01:37:50;;;;;;;18.33;7.28;;;;;;;3.23;80.19;100121.97;10456454;28;20128;-78
2022/11/25 01:42:53;;;;;;;15.75;6.55;;;;;;;3.25;80.17;100130.72;10448608;28;20099;-78
2022/11/25 01:48:00;;;;;;;19.63;7.45;;;;;;;3.25;80.44;100124.56;10449696;28;20124;-78
2022/11/25 01:53:08;;;;;;;23.73;6.95;;;;;;;3.25;80.37;100119.25;10427385;28;20075;-78
2022/11/25 01:58:15;;;;;;;16.42;5.35;;;;;;;3.27;80.18;100120.91;10432757;28;20049;-77
2022/11/25 02:03:21;;;;;;;13.73;5.28;;;;;;;3.26;80.63;100113.88;10448791;28;20115;-78
2022/11/25 02:08:26;;;;;;;19.75;5.35;;;;;;;3.36;80.63;100118.69;10437785;28;20041;-78
2022/11/25 02:13:29;;;;;;;27.15;6.57;;;;;;;3.45;80.81;100115.50;10436219;28;20047;-78
2022/11/25 02:18:32;;;;;;;17.30;5.05;;;;;;;3.46;80.69;100111.91;10418289;28;20072;-78
2022/11/25 02:23:43;;;;;;;12.75;4.55;;;;;;;3.46;80.32;100107.47;10454751;28;20048;-78
2022/11/25 02:28:48;;;;;;;11.85;4.93;;;;;;;3.54;80.32;100095.53;10428443;28;20256;-78
2022/11/25 02:33:52;;;;;;;16.23;5.35;;;;;;;3.69;80.05;100106.16;10445772;28;20063;-78
2022/11/25 02:38:56;;;;;;;16.65;4.63;;;;;;;3.88;79.69;100113.06;10454894;28;20041;-78
2022/11/25 02:44:03;;;;;;;21.85;5.40;;;;;;;3.87;79.35;100103.41;10421772;28;20041;-78
2022/11/25 02:49:07;;;;;;;15.63;3.92;;;;;;;4.03;79.21;100096.25;10426082;28;20059;-78
2022/11/25 02:54:13;;;;;;;19.08;4.55;;;;;;;3.97;79.36;100093.09;10442358;28;20056;-77
2022/11/25 02:59:17;;;;;;;19.45;4.38;;;;;;;4.02;79.31;100102.50;10412058;28;20056;-79
2022/11/25 03:04:21;;;;;;;16.48;4.30;;;;;;;4.17;78.83;100106.09;10446350;28;20047;-78
2022/11/25 03:09:24;;;;;;;13.18;4.47;;;;;;;4.03;79.82;100100.69;10446122;28;20053;-79
2022/11/25 03:14:30;;;;;;;21.23;5.75;;;;;;;4.03;80.15;100095.38;10479037;22;20034;-78
2022/11/25 03:19:33;;;;;;;12.70;4.97;;;;;;;4.09;80.53;100093.22;10460705;28;20045;-77
2022/11/25 03:24:36;;;;;;;13.88;4.82;;;;;;;4.07;80.91;100097.78;10428034;28;20045;-78
2022/11/25 03:29:40;;;;;;;13.45;4.90;;;;;;;4.09;80.92;100100.34;10440809;28;20103;-78
2022/11/25 03:34:43;;;;;;;13.77;4.88;;;;;;;4.05;81.17;100089.03;10445713;28;20490;-78
2022/11/25 03:39:46;;;;;;;23.42;5.55;;;;;;;4.06;81.24;100089.88;10431292;28;20053;-78
2022/11/25 03:44:51;;;;;;;11.52;4.45;;;;;;;4.02;81.45;100083.88;10441789;28;20045;-78
2022/11/25 03:49:54;;;;;;;13.80;4.68;;;;;;;3.99;81.74;100083.22;10430471;28;20426;-78
2022/11/25 03:54:57;;;;;;;19.23;3.97;;;;;;;4.02;81.33;100078.56;10435681;28;20045;-78
2022/11/25 04:00:08;;;;;;;14.43;4.80;;;;;;;4.00;81.58;100075.16;10418368;28;20045;-79
2022/11/25 04:05:19;;;;;;;14.43;4.72;;;;;;;4.00;82.05;100067.16;10431773;28;20041;-77
2022/11/25 04:10:23;;;;;;;19.35;4.90;;;;;;;4.10;81.90;100063.03;10427150;28;20476;-77
2022/11/25 04:15:29;;;;;;;16.95;4.78;;;;;;;4.19;81.88;100053.66;10448394;28;20528;-78
2022/11/25 04:20:33;;;;;;;17.15;5.30;;;;;;;4.28;81.71;100063.75;10428898;28;20132;-78
2022/11/25 04:25:40;;;;;;;19.55;4.95;;;;;;;4.22;81.99;100052.63;10430094;28;20140;-78
2022/11/25 04:30:49;;;;;;;19.30;4.70;;;;;;;4.28;81.77;100057.56;10445921;28;20045;-78
2022/11/25 04:35:52;;;;;;;14.65;4.80;;;;;;;4.44;81.32;100065.47;10455368;28;20041;-78
2022/11/25 04:40:55;;;;;;;18.42;4.80;;;;;;;4.48;81.26;100075.00;10439534;28;20049;-77
2022/11/25 04:46:01;;;;;;;20.13;6.00;;;;;;;4.32;81.62;100088.34;10430952;28;20048;-80
2022/11/25 04:51:25;;;;;;;22.48;5.57;;;;;;;4.53;80.92;100078.22;10428362;28;20660;-80
2022/11/25 04:56:32;;;;;;;16.73;5.60;;;;;;;4.48;81.24;100078.50;10434463;28;20072;-80
2022/11/25 05:01:37;;;;;;;16.23;6.43;;;;;;;4.64;80.87;100089.06;10435976;28;20056;-78
2022/11/25 05:06:58;;;;;;;18.00;4.75;;;;;;;4.62;80.76;100105.13;10458301;28;20045;-79
2022/11/25 05:12:01;;;;;;;16.63;4.50;;;;;;;4.58;80.88;100102.72;10439053;28;20033;-78
2022/11/25 05:17:07;;;;;;;18.98;5.78;;;;;;;4.62;80.81;100094.47;10456617;28;20044;-78
2022/11/25 05:22:11;;;;;;;24.40;7.07;;;;;;;4.73;80.57;100099.16;10456487;28;20053;-78
2022/11/25 05:27:16;;;;;;;19.45;5.82;;;;;;;4.77;80.18;100105.13;10427720;28;20510;-78
2022/11/25 05:32:21;;;;;;;20.73;5.82;;;;;;;4.74;80.28;100105.31;10426873;28;20100;-77
2022/11/25 05:37:24;;;;;;;21.80;6.40;;;;;;;4.79;80.57;100105.91;10420812;28;20052;-77
2022/11/25 05:42:37;;;;;;;19.15;6.05;;;;;;;4.90;80.22;100108.75;10465615;28;20238;-77
2022/11/25 05:47:43;;;;;;;19.25;6.43;;;;;;;4.62;81.60;100093.63;10444415;28;20480;-76
2022/11/25 05:52:50;;;;;;;17.83;7.15;;;;;;;4.68;82.49;100109.22;10448338;28;20041;-78
2022/11/25 05:57:53;;;;;;;23.63;7.28;;;;;;;4.60;83.21;100101.69;10451902;28;20505;-78
2022/11/25 06:02:58;;;;;;;24.90;7.50;;;;;;;4.52;83.89;100105.75;10446745;28;20052;-77
2022/11/25 06:08:01;;;;;;;18.50;7.63;;;;;;;4.65;83.77;100117.38;10424671;28;20406;-78
2022/11/25 06:13:04;;;;;;;23.40;7.72;;;;;;;4.76;83.86;100116.72;10445569;28;20092;-77
2022/11/25 06:18:09;;;;;;;24.63;8.63;;;;;;;4.88;83.49;100115.13;10417790;28;20080;-77
2022/11/25 06:23:12;;;;;;;21.25;7.85;;;;;;;4.87;83.89;100135.56;10440006;28;20042;-77
2022/11/25 06:28:15;;;;;;;20.55;7.78;;;;;;;4.83;83.83;100131.38;10461312;28;20046;-77
2022/11/25 06:33:24;;;;;;;24.23;9.10;;;;;;;4.84;84.02;100136.59;10433462;28;20538;-77
2022/11/25 06:38:27;;;;;;;19.63;7.32;;;;;;;4.91;84.30;100141.53;10438136;28;20583;-77
2022/11/25 06:43:31;;;;;;;22.85;8.13;;;;;;;4.81;84.32;100138.59;10436022;28;20124;-77
2022/11/25 06:48:36;;;;;;;19.85;8.25;;;;;;;4.90;84.52;100135.38;10442258;28;20072;-77
2022/11/25 06:53:39;;;;;;;24.02;7.97;;;;;;;4.81;84.94;100136.78;10446558;28;20129;-77
2022/11/25 06:58:43;;;;;;;19.70;8.73;;;;;;;4.92;84.91;100143.28;10451632;28;20496;-77
2022/11/25 07:03:49;;;;;;;31.55;9.98;;;;;;;5.03;84.97;100151.47;10439247;28;20170;-77
2022/11/25 07:08:52;;;;;;;23.17;10.60;;;;;;;5.05;84.92;100153.09;10425691;28;20052;-77
2022/11/25 07:13:57;;;;;;;31.98;11.55;;;;;;;4.97;85.23;100166.00;10454847;28;20149;-77
2022/11/25 07:19:03;;;;;;;26.73;10.55;;;;;;;5.22;85.39;100162.69;10428505;28;20047;-78
2022/11/25 07:24:07;;;;;;;22.98;8.38;;;;;;;5.41;85.05;100166.88;10438983;28;20416;-78
2022/11/25 07:29:12;;;;;;;14.00;6.60;;;;;;;5.46;84.75;100175.44;10465892;28;20140;-77
2022/11/25 07:34:36;;;;;;;17.77;7.13;;;;;;;5.58;84.64;100185.31;10444440;28;20044;-77
2022/11/25 07:39:39;;;;;;;19.75;7.57;;;;;;;5.61;84.75;100184.25;10435994;28;20132;-78
2022/11/25 07:44:41;;;;;;;20.38;8.57;;;;;;;5.59;84.60;100204.81;10428299;28;20076;-78
2022/11/25 07:50:09;;;;;;;18.73;9.07;;;;;;;5.45;85.14;100209.19;10418409;28;20060;-78
2022/11/25 07:55:12;;;;;;;21.60;10.32;;;;;;;5.39;85.91;100217.56;10435315;28;20041;-78
2022/11/25 08:00:16;;;;;;;23.63;9.68;;;;;;;5.44;85.91;100210.16;10459036;28;20484;-78
2022/11/25 08:05:20;;;;;;;26.23;10.20;;;;;;;5.46;86.31;100218.06;10435372;28;20128;-78
2022/11/25 08:10:23;;;;;;;25.42;9.90;;;;;;;5.43;86.15;100229.78;10445666;28;20135;-78
2022/11/25 08:15:25;;;;;;;30.88;11.40;;;;;;;5.45;86.57;100235.84;10443688;28;20041;-78
2022/11/25 08:20:30;;;;;;;24.33;10.73;;;;;;;5.47;86.68;100236.63;10425964;28;20073;-78
2022/11/25 08:25:33;;;;;;;27.70;10.95;;;;;;;5.46;86.73;100245.56;10439284;28;20402;-78
2022/11/25 08:30:36;;;;;;;23.20;10.48;;;;;;;5.55;86.84;100260.13;10437733;28;20080;-78
2022/11/25 08:35:40;;;;;;;26.38;10.82;;;;;;;5.59;87.34;100258.97;10434657;28;20052;-78
2022/11/25 08:40:44;;;;;;;31.48;11.73;;;;;;;5.70;87.62;100272.50;10436256;28;20048;-79
2022/11/25 08:45:47;;;;;;;32.35;11.82;;;;;;;5.81;87.98;100276.28;10454285;28;20438;-79
2022/11/25 08:50:54;;;;;;;32.80;13.23;;;;;;;5.88;88.42;100275.81;10445866;28;20124;-79
2022/11/25 08:55:57;;;;;;;29.13;12.02;;;;;;;5.89;88.72;100279.31;10428304;28;20077;-78
2022/11/25 09:01:00;;;;;;;27.25;11.32;;;;;;;5.95;89.03;100274.47;10432079;28;20507;-78
2022/11/25 09:06:04;;;;;;;30.70;9.63;;;;;;;6.07;89.32;100288.81;10444947;28;20072;-77
2022/11/25 09:11:08;;;;;;;25.90;8.38;;;;;;;6.15;90.04;100289.19;10417524;28;20083;-77
2022/11/25 09:16:11;;;;;;;34.03;13.73;;;;;;;6.24;90.50;100287.75;10467306;22;20124;-80
2022/11/25 09:21:17;;;;;;;14.68;5.40;;;;;;;6.21;91.38;100303.94;10399455;28;20054;-79
2022/11/25 09:26:23;;;;;;;15.68;6.90;;;;;;;6.45;90.87;100301.50;10402472;28;20046;-78
2022/11/25 09:31:26;;;;;;;19.20;6.85;;;;;;;6.62;90.60;100309.25;10407043;28;20077;-79
2022/11/25 09:36:30;;;;;;;11.32;4.93;;;;;;;6.70;90.32;100315.91;10383413;28;20066;-77
2022/11/25 09:47:22;;;;;;;18.92;6.03;;;;;;;6.81;90.51;100316.91;10398933;28;20472;-78
2022/11/25 09:52:37;;;;;;;14.60;5.38;;;;;;;6.84;90.44;100319.38;10411422;28;20041;-78
2022/11/25 09:57:52;;;;;;;17.65;5.15;;;;;;;6.89;90.65;100321.78;10401328;28;20418;-78
2022/11/25 10:03:06;;;;;;;15.85;5.22;;;;;;;7.05;91.17;100325.13;10391754;28;20041;-77
2022/11/25 10:08:15;;;;;;;17.10;5.20;;;;;;;7.13;90.96;100321.06;10391736;28;20128;-78
2022/11/25 10:13:22;;;;;;;13.23;5.22;;;;;;;7.21;90.43;100324.97;10406079;28;20375;-78
2022/11/25 10:18:29;;;;;;;19.48;5.20;;;;;;;7.26;89.67;100322.81;10396673;28;20681;-78
2022/11/25 10:23:37;;;;;;;13.00;5.57;;;;;;;7.48;89.73;100324.00;10408044;28;20052;-77
2022/11/25 10:28:45;;;;;;;15.27;5.07;;;;;;;7.45;89.42;100334.91;10389781;28;20080;-78
2022/11/25 10:33:51;;;;;;;7.85;4.63;;;;;;;7.90;90.85;100333.53;10412264;28;20042;-78
2022/11/25 10:38:59;;;;;;;15.57;4.70;;;;;;;8.52;90.66;100339.84;10388975;28;20084;-79
2022/11/25 10:44:03;;;;;;;9.93;3.88;;;;;;;8.78;84.94;100345.97;10400611;28;20148;-79
2022/11/25 10:49:14;;;;;;;15.88;4.68;;;;;;;8.59;84.21;100341.97;10409239;28;20453;-77
2022/11/25 10:54:20;;;;;;;8.60;3.67;;;;;;;8.37;83.95;100344.47;10368581;28;20061;-79
2022/11/25 10:59:32;;;;;;;9.95;5.00;;;;;;;8.25;83.59;100351.56;10385279;28;20117;-79
2022/11/25 11:04:36;;;;;;;16.95;4.85;;;;;;;8.03;83.94;100354.91;10387427;28;20045;-79
2022/11/25 11:09:40;;;;;;;16.70;4.72;;;;;;;8.19;84.35;100349.31;10389728;28;20045;-79
2022/11/25 11:14:43;;;;;;;10.77;5.00;;;;;;;8.34;83.74;100350.06;10413056;28;20038;-79
2022/11/25 11:20:01;;;;;;;9.77;5.63;;;;;;;8.46;82.70;100346.50;10394509;28;20062;-79
2022/11/25 11:25:23;;;;;;;9.15;5.18;;;;;;;8.52;81.75;100355.91;10407365;28;20038;-78
2022/11/25 11:30:28;;;;;;;11.10;5.73;;;;;;;8.83;82.26;100359.88;10396274;28;20136;-78
2022/11/25 11:35:46;;;;;;;13.55;5.65;;;;;;;9.02;80.61;100368.28;10397232;28;20046;-79
2022/11/25 11:40:55;;;;;;;13.05;5.30;;;;;;;8.75;81.44;100375.66;10414711;28;20046;-78
2022/11/25 11:46:11;;;;;;;13.27;5.85;;;;;;;8.70;81.69;100378.69;10402719;28;20096;-78
2022/11/25 11:51:22;;;;;;;11.73;5.63;;;;;;;8.45;82.21;100386.72;10410631;28;20073;-77
2022/11/25 11:56:33;;;;;;;14.30;5.78;;;;;;;8.24;83.46;100389.16;10392303;28;20041;-79
2022/11/25 12:01:48;;;;;;;15.35;7.45;;;;;;;8.40;83.35;100398.66;10419113;28;20109;-80
2022/11/25 12:07:02;;;;;;;18.20;8.43;;;;;;;8.11;83.46;100405.22;10393709;28;20050;-78
2022/11/25 12:12:13;;;;;;;16.02;9.00;;;;;;;8.52;81.88;100410.31;10415141;28;20084;-78
2022/11/25 12:17:20;;;;;;;13.80;9.07;;;;;;;9.03;79.43;100420.88;10407368;28;20042;-79
2022/11/25 12:22:28;;;;;;;17.52;8.65;;;;;;;8.99;80.02;100418.53;10415453;28;20406;-79
2022/11/25 12:27:37;;;;;;;15.60;9.05;;;;;;;9.07;79.48;100418.81;10406587;28;20046;-79
2022/11/25 12:32:56;;;;;;;14.93;8.82;;;;;;;9.44;77.40;100424.13;10420370;28;20049;-79
2022/11/25 12:38:08;;;;;;;11.43;7.82;;;;;;;9.73;76.53;100420.03;10431036;28;20053;-78
2022/11/25 12:43:25;;;;;;;18.03;8.13;;;;;;;9.77;75.04;100428.72;10436115;28;20057;-79
2022/11/25 12:48:28;;;;;;;13.35;7.03;;;;;;;9.81;74.13;100430.19;10385262;28;20045;-80
2022/11/25 12:53:41;;;;;;;14.85;8.85;;;;;;;10.06;75.37;100433.69;10399572;28;20044;-80
2022/11/25 12:59:03;;;;;;;11.90;8.13;;;;;;;9.24;75.71;100434.50;10403061;28;20499;-80
2022/11/25 13:04:36;;;;;;;11.40;8.25;;;;;;;9.00;78.35;100447.06;10380666;28;20042;-80
2022/11/25 13:09:56;;;;;;;12.75;8.02;;;;;;;8.56;77.71;100451.13;10394321;28;20609;-81
2022/11/25 13:15:20;;;;;;;13.32;10.05;;;;;;;9.35;77.54;100456.97;10421149;28;20124;-80
2022/11/25 13:20:36;;;;;;;12.13;8.15;;;;;;;9.79;75.32;100472.41;10406238;28;20069;-80
2022/11/25 13:25:42;;;;;;;16.67;8.93;;;;;;;10.31;73.81;100470.19;10393335;28;20102;-80
2022/11/25 13:30:50;;;;;;;15.52;9.07;;;;;;;10.53;72.51;100474.72;10411044;28;20085;-80
2022/11/25 13:35:54;;;;;;;12.18;7.97;;;;;;;10.41;72.89;100487.28;10373721;28;20411;-80
2022/11/25 13:40:59;;;;;;;11.30;6.82;;;;;;;10.56;71.68;100488.78;10375721;28;20084;-80
2022/11/25 13:46:03;;;;;;;14.90;7.50;;;;;;;10.73;71.62;100498.19;10376781;28;20050;-80
2022/11/25 13:51:18;;;;;;;15.60;6.90;;;;;;;10.28;73.03;100503.50;10396111;28;20045;-81
2022/11/25 13:56:28;;;;;;;10.50;6.28;;;;;;;9.65;75.87;100512.81;10414850;28;20045;-80
2022/11/25 14:01:32;;;;;;;13.07;6.65;;;;;;;9.48;76.39;100511.38;10397016;28;20122;-80
2022/11/25 14:07:01;;;;;;;11.93;6.57;;;;;;;9.27;77.03;100525.41;10370898;28;20132;-80
2022/11/25 14:12:33;;;;;;;14.85;7.13;;;;;;;9.16;77.57;100537.88;10411649;28;20157;-79
2022/11/25 14:18:08;;;;;;;12.63;7.47;;;;;;;9.12;78.12;100533.72;10367859;28;20037;-79
2022/11/25 14:23:49;;;;;;;18.35;6.22;;;;;;;9.12;77.42;100536.41;10420036;28;20045;-80
2022/11/25 14:28:57;;;;;;;10.70;6.28;;;;;;;9.08;77.61;100537.56;10401829;28;20041;-79
2022/11/25 14:34:10;;;;;;;10.25;6.20;;;;;;;8.89;77.64;100549.63;10401674;28;20561;-79
2022/11/25 14:39:21;;;;;;;13.95;6.18;;;;;;;8.96;77.90;100555.41;10420280;28;20072;-78
2022/11/25 14:44:28;;;;;;;13.70;6.57;;;;;;;8.81;78.17;100560.03;10385687;28;20105;-80
2022/11/25 14:49:47;;;;;;;13.18;6.45;;;;;;;8.58;78.58;100569.66;10400535;28;20057;-80
2022/11/25 14:55:11;;;;;;;16.20;6.82;;;;;;;8.46;79.65;100573.22;10399752;28;20042;-79
2022/11/25 15:00:16;;;;;;;14.15;6.60;;;;;;;8.35;79.12;100580.13;10389597;28;20507;-80
2022/11/25 15:05:24;;;;;;;11.80;6.35;;;;;;;8.30;79.55;100586.75;10410431;28;20057;-79
2022/11/25 15:10:40;;;;;;;15.27;7.25;;;;;;;8.32;80.31;100585.69;10427412;28;20069;-80
2022/11/25 15:15:48;;;;;;;10.75;6.85;;;;;;;8.26;79.96;100595.97;10428407;28;20045;-79
2022/11/25 15:20:57;;;;;;;13.23;6.85;;;;;;;8.44;79.81;100601.88;10307528;28;20074;-76
2022/11/25 15:26:01;;;;;;;13.45;7.05;;;;;;;8.42;79.55;100596.66;10306942;28;20081;-77
2022/11/25 15:31:09;;;;;;;14.00;7.55;;;;;;;8.43;80.00;100603.69;10349769;28;20124;-77
2022/11/25 15:36:13;;;;;;;16.38;7.38;;;;;;;8.42;79.79;100604.66;10348960;28;20093;-77
2022/11/25 15:41:20;;;;;;;23.45;7.72;;;;;;;8.33;80.23;100618.66;10353117;28;20046;-77
2022/11/25 15:46:24;;;;;;;17.05;7.82;;;;;;;8.35;80.45;100616.75;10357802;28;20503;-76
2022/11/25 15:51:40;;;;;;;17.48;7.28;;;;;;;8.24;81.44;100630.00;10359337;28;20310;-76
2022/11/25 15:56:47;;;;;;;17.73;8.48;;;;;;;8.17;81.99;100643.81;10363421;28;20061;-76
2022/11/25 16:01:50;;;;;;;18.92;8.05;;;;;;;8.21;82.11;100646.28;10357683;28;20081;-76
2022/11/25 16:06:58;;;;;;;18.83;9.18;;;;;;;8.21;81.94;100656.97;10356688;28;20113;-77
2022/11/25 16:12:06;;;;;;;21.23;8.98;;;;;;;8.24;81.20;100659.44;10350290;28;20135;-76
2022/11/25 16:17:11;;;;;;;27.67;9.05;;;;;;;8.33;81.43;100666.84;10345348;28;20137;-76
2022/11/25 16:22:18;;;;;;;18.90;7.82;;;;;;;8.21;81.34;100670.34;10354162;28;20042;-76
2022/11/25 16:27:24;;;;;;;18.60;7.47;;;;;;;8.17;81.71;100685.75;10360764;28;20042;-77
2022/11/25 16:32:30;;;;;;;20.50;6.93;;;;;;;8.31;80.91;100679.47;10360822;28;20133;-77
2022/11/25 16:37:34;;;;;;;19.55;7.75;;;;;;;8.26;80.87;100698.53;10360432;28;20471;-76
2022/11/25 16:42:37;;;;;;;17.85;6.85;;;;;;;8.24;81.02;100710.28;10359947;28;20080;-77
2022/11/25 16:47:40;;;;;;;16.95;6.53;;;;;;;8.28;80.77;100725.16;10362641;28;20137;-76
2022/11/25 16:52:44;;;;;;;;;;;;;;;8.31;80.34;100735.66;10356907;28;20044;-77
2022/11/25 16:57:47;;;;;;;21.02;5.88;;;;;;;8.25;80.44;100742.28;10363213;28;20072;-77
2022/11/25 17:02:50;;;;;;;13.82;6.57;;;;;;;8.16;80.26;100745.56;10353305;28;20089;-76
2022/11/25 17:07:54;;;;;;;18.40;6.78;;;;;;;8.30;80.60;100742.84;10347248;28;20085;-77
2022/11/25 17:12:57;;;;;;;13.32;5.65;;;;;;;8.43;79.54;100752.75;10345370;28;20046;-76
2022/11/25 17:18:00;;;;;;;11.75;5.68;;;;;;;8.49;80.10;100755.06;10349866;28;20042;-77
2022/11/25 17:23:12;;;;;;;13.80;5.45;;;;;;;8.34;79.95;100765.78;10332256;28;20046;-77
2022/11/25 17:28:17;;;;;;;13.32;6.38;;;;;;;8.32;80.11;100772.22;10347737;28;20479;-77
2022/11/25 17:33:20;;;;;;;15.07;6.47;;;;;;;7.94;80.92;100780.88;10354318;28;20051;-77
2022/11/25 17:38:24;;;;;;;17.70;7.03;;;;;;;7.87;81.13;100780.44;10347478;28;20124;-77
2022/11/25 17:43:27;;;;;;;20.27;6.65;;;;;;;7.79;81.55;100793.44;10352120;28;20096;-76
2022/11/25 17:48:36;;;;;;;16.98;6.68;;;;;;;7.88;81.12;100798.19;10342779;28;20046;-76
2022/11/25 17:53:41;;;;;;;15.82;6.60;;;;;;;7.72;81.42;100817.00;10362992;28;20092;-76
2022/11/25 17:58:44;;;;;;;19.90;8.80;;;;;;;7.83;81.57;100816.34;10346763;28;20096;-76
2022/11/25 18:03:48;;;;;;;17.90;8.05;;;;;;;7.82;81.84;100835.19;10348861;28;20144;-76
2022/11/25 18:08:52;;;;;;;21.50;7.72;;;;;;;7.65;82.12;100837.06;10354165;28;20145;-77
2022/11/25 18:13:55;;;;;;;21.08;7.80;;;;;;;7.34;82.91;100843.41;10356987;28;20049;-76
2022/11/25 18:18:58;;;;;;;13.13;7.25;;;;;;;7.44;82.71;100843.72;10342660;28;20042;-77
2022/11/25 18:24:02;;;;;;;19.00;7.72;;;;;;;7.42;82.85;100857.19;10356485;28;20635;-76
2022/11/25 18:29:06;;;;;;;17.10;7.40;;;;;;;7.23;83.70;100868.09;10356340;28;20133;-76
2022/11/25 18:34:14;;;;;;;20.23;7.10;;;;;;;7.13;83.52;100877.63;10349731;28;20053;-76
2022/11/25 18:39:18;;;;;;;22.17;7.47;;;;;;;7.21;83.31;100878.03;10345109;28;20695;-77
2022/11/25 18:44:23;;;;;;;18.48;6.50;;;;;;;6.99;83.30;100888.25;10340259;28;20050;-77
2022/11/25 18:49:39;;;;;;;17.58;6.55;;;;;;;7.15;82.44;100890.88;10343785;28;20058;-77
2022/11/25 18:54:43;;;;;;;15.30;6.43;;;;;;;7.26;81.61;100896.47;10339126;28;20407;-76
2022/11/25 18:59:46;;;;;;;14.18;6.05;;;;;;;6.97;82.59;100904.38;10328606;28;20521;-76
2022/11/25 19:05:02;;;;;;;10.65;5.57;;;;;;;6.91;83.40;100914.53;10334553;28;20054;-76
2022/11/25 19:10:09;;;;;;;14.98;5.93;;;;;;;7.30;82.24;100915.88;10346090;28;20410;-76
2022/11/25 19:15:20;;;;;;;12.48;5.45;;;;;;;7.40;81.32;100920.53;10354990;28;20056;-76
2022/11/25 19:20:23;;;;;;;15.35;5.35;;;;;;;7.44;80.79;100935.47;10348715;28;20042;-76
2022/11/25 19:25:28;;;;;;;16.00;6.72;;;;;;;7.44;80.88;100938.16;10347528;28;20133;-76
2022/11/25 19:30:32;;;;;;;18.63;6.90;;;;;;;7.54;81.07;100938.44;10347676;28;20042;-76
2022/11/25 19:35:37;;;;;;;19.92;8.05;;;;;;;7.43;82.33;100952.47;10355518;28;20146;-77
2022/11/25 19:40:41;;;;;;;14.40;6.88;;;;;;;7.62;81.62;100964.72;10348274;28;20038;-77
2022/11/25 19:45:45;;;;;;;19.60;6.57;;;;;;;7.52;82.17;100971.59;10366807;28;20078;-76
2022/11/25 19:50:50;;;;;;;28.58;9.95;;;;;;;7.69;82.58;100984.81;10360762;28;20054;-76
2022/11/25 19:55:54;;;;;;;18.08;8.77;;;;;;;7.39;84.29;101001.69;10357000;28;20050;-76
2022/11/25 20:01:01;;;;;;;22.83;9.45;;;;;;;7.60;83.43;101007.63;10358172;28;20042;-76
2022/11/25 20:06:05;;;;;;;24.10;8.32;;;;;;;7.43;84.03;101011.28;10349193;28;20037;-77
2022/11/25 20:11:11;;;;;;;22.17;8.90;;;;;;;7.49;83.59;101023.44;10336419;28;20042;-76
2022/11/25 20:16:17;;;;;;;18.65;9.27;;;;;;;7.38;83.95;101040.09;10352373;28;20464;-76
2022/11/25 20:21:26;;;;;;;28.70;8.60;;;;;;;7.19;85.03;101045.59;10341031;28;20057;-76
2022/11/25 20:26:34;;;;;;;25.17;10.65;;;;;;;7.24;84.90;101051.56;10337597;28;20526;-76
2022/11/25 20:31:36;;;;;;;26.90;10.15;;;;;;;7.41;84.15;101065.78;10337031;28;20074;-76
2022/11/25 20:36:41;;;;;;;26.85;10.60;;;;;;;7.64;82.78;101076.00;10339469;28;20054;-77
2022/11/25 20:41:47;;;;;;;27.48;10.90;;;;;;;7.30;84.12;101081.56;10361514;28;20066;-76
2022/11/25 20:46:50;;;;;;;29.85;12.50;;;;;;;7.48;83.50;101092.03;10359603;28;20092;-76
2022/11/25 20:51:53;;;;;;;27.85;11.65;;;;;;;7.25;83.78;101101.38;10338445;28;20137;-77
2022/11/25 20:56:59;;;;;;;33.90;13.00;;;;;;;7.06;85.73;101106.00;10338391;28;20042;-77
2022/11/25 21:02:02;;;;;;;26.63;11.98;;;;;;;7.03;85.41;101109.72;10351647;28;20124;-76
2022/11/25 21:07:10;;;;;;;29.55;13.40;;;;;;;7.20;84.72;101118.63;10362598;28;20050;-77
2022/11/25 21:12:15;;;;;;;38.95;12.18;;;;;;;6.98;85.45;101130.47;10353646;28;20457;-77
2022/11/25 21:17:21;;;;;;;30.25;13.10;;;;;;;7.17;84.95;101137.50;10352097;28;20070;-76
2022/11/25 21:22:23;;;;;;;;;;;;;;;7.23;84.77;101143.34;10473324;22;20036;-78
2022/11/25 21:27:28;;;;;;;27.95;13.30;;;;;;;7.28;84.82;101148.44;10493087;28;19921;-78
2022/11/25 21:32:31;;;;;;;31.25;14.43;;;;;;;7.37;83.81;101150.59;10494215;28;20451;-78
2022/11/25 21:37:35;;;;;;;31.10;14.40;;;;;;;7.34;83.61;101152.59;10502123;28;20052;-79
2022/11/25 21:42:39;;;;;;;32.85;15.00;;;;;;;7.25;83.56;101159.31;10503259;28;20045;-78
2022/11/25 21:47:42;;;;;;;35.47;13.85;;;;;;;7.17;84.18;101173.09;10490503;28;20092;-78
2022/11/25 21:52:45;;;;;;;32.40;15.73;;;;;;;7.08;84.13;101184.28;10460266;28;20052;-78
2022/11/25 21:57:50;;;;;;;34.83;16.00;;;;;;;7.16;84.30;101174.03;10462934;28;20071;-79
2022/11/25 22:02:52;;;;;;;33.28;16.17;;;;;;;7.05;84.60;101176.44;10459253;28;20045;-80
2022/11/25 22:07:55;;;;;;;30.25;15.57;;;;;;;7.02;84.45;101181.91;10473377;28;20488;-78
2022/11/25 22:13:00;;;;;;;38.30;16.48;;;;;;;6.90;84.43;101180.78;10459649;28;20044;-80
2022/11/25 22:18:03;;;;;;;38.47;16.08;;;;;;;6.83;84.67;101182.88;10460056;28;20076;-80
2022/11/25 22:23:13;;;;;;;40.50;18.55;;;;;;;6.63;86.23;101199.06;10480696;28;20064;-79
2022/11/25 22:28:20;;;;;;;41.22;15.95;;;;;;;6.47;86.59;101207.00;10494194;28;20090;-78
2022/11/25 22:33:28;;;;;;;36.38;16.63;;;;;;;6.49;86.41;101215.78;10475318;28;20049;-79
2022/11/25 22:38:31;;;;;;;37.92;16.55;;;;;;;6.46;85.85;101221.28;10483561;28;20049;-79
2022/11/25 22:43:42;;;;;;;36.08;16.20;;;;;;;6.36;86.65;101234.25;10488766;28;20072;-79
2022/11/25 22:48:45;;;;;;;46.72;19.15;;;;;;;6.38;87.29;101237.69;10493503;28;20163;-78
2022/11/25 22:53:48;;;;;;;42.92;18.25;;;;;;;6.53;86.45;101240.53;10484537;28;20041;-78
2022/11/25 22:58:58;;;;;;;60.17;19.70;;;;;;;6.31;87.25;101238.94;10501431;28;20063;-80
2022/11/25 23:04:01;;;;;;;38.65;17.63;;;;;;;6.45;86.71;101251.59;10496831;28;20166;-79
2022/11/25 23:09:10;;;;;;;47.95;19.65;;;;;;;6.29;88.38;101247.97;10488357;28;20071;-79
2022/11/25 23:14:14;;;;;;;44.88;17.70;;;;;;;6.23;88.12;101253.59;10483794;28;20060;-79
2022/11/25 23:19:17;;;;;;;48.88;18.05;;;;;;;6.28;87.71;101264.91;10483951;28;20076;-78
2022/11/25 23:24:20;;;;;;;41.65;19.10;;;;;;;6.34;88.36;101265.47;10495674;28;20044;-79
2022/11/25 23:29:24;;;;;;;43.53;18.42;;;;;;;6.48;87.58;101272.78;10503144;28;20118;-78
2022/11/25 23:34:27;;;;;;;49.97;20.02;;;;;;;6.44;88.40;101273.88;10484312;28;20113;-79
2022/11/25 23:39:31;;;;;;;47.90;20.65;;;;;;;6.41;88.06;101287.38;10493838;28;20074;-79